createdAt,value
2022-11-16T00:01:08.106Z,80.66
2022-11-16T00:03:35.926Z,81.32
2022-11-16T00:06:05.550Z,82.23
2022-11-16T00:08:35.906Z,81.12
2022-11-16T00:11:19.118Z,81.44
2022-11-16T00:13:46.571Z,82.20
2022-11-16T00:16:16.707Z,82.68
2022-11-16T00:18:44.782Z,81.35
2022-11-16T00:21:12.298Z,81.94
2022-11-16T00:23:39.897Z,82.67
2022-11-16T00:26:09.920Z,82.21
2022-11-16T00:28:37.623Z,83.58
2022-11-16T00:31:07.017Z,81.76
2022-11-16T00:33:35.003Z,82.17
2022-11-16T00:36:11.869Z,81.55
2022-11-16T00:38:41.047Z,80.91
2022-11-16T00:41:09.850Z,81.62
2022-11-16T00:43:37.727Z,81.20
2022-11-16T00:46:05.775Z,80.54
2022-11-16T00:48:33.623Z,82.21
2022-11-16T00:51:01.545Z,81.50
2022-11-16T00:53:29.301Z,80.10
2022-11-16T00:55:56.927Z,80.57
2022-11-16T00:58:25.208Z,81.26
2022-11-16T01:01:08.196Z,80.99
2022-11-16T01:03:36.907Z,80.84
2022-11-16T01:06:06.987Z,81.07
2022-11-16T01:08:36.535Z,80.89
2022-11-16T01:11:23.837Z,81.33
2022-11-16T01:13:51.950Z,80.99
2022-11-16T01:16:21.942Z,80.33
2022-11-16T01:18:51.876Z,80.78
2022-11-16T01:21:20.416Z,80.07
2022-11-16T01:23:48.258Z,80.31
2022-11-16T01:26:15.796Z,80.16
2022-11-16T01:28:43.866Z,79.99
2022-11-16T01:31:12.651Z,80.86
2022-11-16T01:33:41.293Z,80.44
2022-11-16T01:36:15.835Z,80.65
2022-11-16T01:38:45.751Z,81.03
2022-11-16T01:41:16.759Z,80.83
2022-11-16T01:44:14.894Z,81.25
2022-11-16T01:46:51.934Z,81.38
2022-11-16T01:49:22.550Z,81.21
2022-11-16T01:51:57.412Z,81.79
2022-11-16T01:54:27.435Z,81.23
2022-11-16T01:57:06.990Z,81.51
2022-11-16T01:59:41.768Z,81.20
2022-11-16T02:02:16.503Z,80.90
2022-11-16T02:04:47.768Z,81.44
2022-11-16T02:08:11.040Z,80.88
2022-11-16T02:11:00.508Z,80.94
2022-11-16T02:13:51.685Z,81.37
2022-11-16T02:16:59.779Z,81.50
2022-11-16T02:19:51.031Z,81.77
2022-11-16T02:22:24.283Z,82.10
2022-11-16T02:25:11.751Z,81.17
2022-11-16T02:27:51.283Z,82.21
2022-11-16T02:30:20.293Z,82.35
2022-11-16T02:33:02.784Z,81.34
2022-11-16T02:35:52.445Z,82.23
2022-11-16T02:38:26.407Z,81.02
2022-11-16T02:41:12.639Z,82.21
2022-11-16T02:43:48.618Z,82.43
2022-11-16T02:46:22.759Z,81.64
2022-11-16T02:48:55.644Z,82.83
2022-11-16T02:51:26.513Z,82.02
2022-11-16T02:54:13.121Z,82.10
2022-11-16T02:56:56.053Z,82.52
2022-11-16T02:59:32.021Z,82.86
2022-11-16T03:01:59.789Z,82.40
2022-11-16T03:04:41.409Z,81.69
2022-11-16T03:07:13.822Z,82.79
2022-11-16T03:09:43.954Z,82.45
2022-11-16T03:12:16.007Z,82.36
2022-11-16T03:14:59.856Z,81.58
2022-11-16T03:17:38.004Z,81.95
2022-11-16T03:20:16.029Z,82.31
2022-11-16T03:22:50.854Z,82.00
2022-11-16T03:25:22.696Z,84.08
2022-11-16T03:28:35.487Z,82.90
2022-11-16T03:31:19.339Z,82.57
2022-11-16T03:33:52.542Z,82.55
2022-11-16T03:36:36.122Z,82.08
2022-11-16T03:39:15.681Z,82.39
2022-11-16T03:41:48.221Z,82.65
2022-11-16T03:44:18.078Z,83.25
2022-11-16T03:46:47.067Z,81.85
2022-11-16T03:49:16.180Z,81.50
2022-11-16T03:51:44.169Z,81.13
2022-11-16T03:54:12.309Z,81.43
2022-11-16T03:56:40.924Z,81.27
2022-11-16T03:59:10.805Z,81.13
2022-11-16T04:01:43.371Z,80.98
2022-11-16T04:04:33.118Z,80.62
2022-11-16T04:07:19.361Z,80.45
2022-11-16T04:10:06.341Z,80.60
2022-11-16T04:12:52.454Z,80.57
2022-11-16T04:15:38.822Z,80.06
2022-11-16T04:18:28.898Z,80.03
2022-11-16T04:21:15.659Z,80.95
2022-11-16T04:24:02.918Z,80.17
2022-11-16T04:26:59.246Z,80.18
2022-11-16T04:29:26.882Z,80.21
2022-11-16T04:32:13.269Z,80.45
2022-11-16T04:34:59.481Z,80.63
2022-11-16T04:37:45.565Z,80.06
2022-11-16T04:40:13.951Z,80.04
2022-11-16T04:42:42.593Z,80.38
2022-11-16T04:45:29.132Z,79.86
2022-11-16T04:47:56.723Z,80.73
2022-11-16T04:50:29.863Z,81.26
2022-11-16T04:52:58.974Z,80.11
2022-11-16T04:55:26.838Z,80.24
2022-11-16T04:57:54.738Z,79.71
2022-11-16T05:00:23.202Z,80.42
2022-11-16T05:02:52.992Z,79.88
2022-11-16T05:05:23.408Z,79.70
2022-11-16T05:07:52.190Z,80.37
2022-11-16T05:10:25.287Z,80.82
2022-11-16T05:12:53.815Z,80.66
2022-11-16T05:15:22.239Z,80.61
2022-11-16T05:17:51.167Z,79.84
2022-11-16T05:20:41.010Z,80.03
2022-11-16T05:23:29.180Z,80.17
2022-11-16T05:26:00.193Z,80.06
2022-11-16T05:28:28.850Z,80.33
2022-11-16T05:30:56.415Z,80.38
2022-11-16T05:33:26.540Z,80.00
2022-11-16T05:35:54.101Z,81.06
2022-11-16T05:38:22.453Z,81.67
2022-11-16T05:40:54.035Z,80.48
2022-11-16T05:43:21.646Z,81.00
2022-11-16T05:46:09.592Z,82.07
2022-11-16T05:48:38.265Z,82.66
2022-11-16T05:51:09.078Z,82.09
2022-11-16T05:53:36.569Z,82.07
2022-11-16T05:56:05.340Z,82.59
2022-11-16T05:58:37.322Z,81.37
2022-11-16T06:01:06.335Z,81.53
2022-11-16T06:03:35.608Z,80.95
2022-11-16T06:06:04.889Z,81.17
2022-11-16T06:08:32.896Z,80.89
2022-11-16T06:11:07.162Z,81.34
2022-11-16T06:13:37.214Z,81.55
2022-11-16T06:16:05.636Z,81.05
2022-11-16T06:18:40.512Z,81.08
2022-11-16T06:21:11.533Z,81.04
2022-11-16T06:23:40.157Z,81.39
2022-11-16T06:26:08.489Z,81.15
2022-11-16T06:28:37.345Z,80.49
2022-11-16T06:31:06.067Z,80.61
2022-11-16T06:33:38.040Z,81.60
2022-11-16T06:36:09.955Z,81.50
2022-11-16T06:38:38.437Z,82.50
2022-11-16T06:41:06.149Z,82.51
2022-11-16T06:43:39.643Z,82.40
2022-11-16T06:46:07.595Z,81.83
2022-11-16T06:48:35.589Z,83.10
2022-11-16T06:51:07.343Z,81.78
2022-11-16T06:53:35.516Z,81.79
2022-11-16T06:56:05.561Z,80.92
2022-11-16T06:58:38.014Z,82.37
2022-11-16T07:01:11.675Z,80.83
2022-11-16T07:03:41.794Z,81.58
2022-11-16T07:06:11.947Z,81.14
2022-11-16T07:08:41.951Z,81.71
2022-11-16T07:11:11.496Z,82.77
2022-11-16T07:13:39.874Z,81.37
2022-11-16T07:16:11.773Z,81.86
2022-11-16T07:18:44.419Z,80.85
2022-11-16T07:21:16.107Z,80.82
2022-11-16T07:23:45.430Z,80.31
2022-11-16T07:26:17.902Z,79.99
2022-11-16T07:28:53.902Z,80.08
2022-11-16T07:31:23.539Z,81.09
2022-11-16T07:34:11.114Z,82.35
2022-11-16T07:36:47.215Z,81.07
2022-11-16T07:39:14.843Z,81.07
2022-11-16T07:41:44.275Z,80.96
2022-11-16T07:44:26.982Z,80.24
2022-11-16T07:47:20.724Z,80.84
2022-11-16T07:49:48.982Z,81.24
2022-11-16T07:52:19.727Z,80.76
2022-11-16T07:54:53.969Z,80.76
2022-11-16T07:57:24.778Z,81.43
2022-11-16T07:59:54.311Z,81.51
2022-11-16T08:02:21.899Z,81.35
2022-11-16T08:04:51.167Z,80.70
2022-11-16T08:07:23.465Z,80.57
2022-11-16T08:09:54.889Z,80.45
2022-11-16T08:12:23.506Z,78.97
2022-11-16T08:14:51.046Z,79.30
2022-11-16T08:17:18.565Z,78.46
2022-11-16T08:19:46.232Z,78.97
2022-11-16T08:22:16.159Z,78.13
2022-11-16T08:24:45.366Z,78.92
2022-11-16T08:27:15.418Z,80.21
2022-11-16T08:29:44.619Z,80.61
2022-11-16T08:32:12.624Z,80.26
2022-11-16T08:34:40.281Z,79.36
2022-11-16T08:37:07.836Z,79.74
2022-11-16T08:39:44.749Z,79.08
2022-11-16T08:42:12.585Z,80.18
2022-11-16T08:44:44.594Z,79.62
2022-11-16T08:47:15.076Z,79.69
2022-11-16T08:49:49.648Z,79.64
2022-11-16T08:52:18.880Z,78.82
2022-11-16T08:54:47.338Z,79.85
2022-11-16T08:57:15.642Z,78.83
2022-11-16T08:59:47.667Z,78.84
2022-11-16T09:02:15.282Z,78.89
2022-11-16T09:04:43.836Z,78.21
2022-11-16T09:07:11.383Z,77.84
2022-11-16T09:09:39.155Z,77.54
2022-11-16T09:12:06.732Z,77.74
2022-11-16T09:14:34.250Z,77.41
2022-11-16T09:17:01.910Z,77.66
2022-11-16T09:19:29.389Z,77.76
2022-11-16T09:21:56.814Z,79.20
2022-11-16T09:24:24.337Z,78.78
2022-11-16T09:26:51.832Z,77.41
2022-11-16T09:29:19.415Z,78.12
2022-11-16T09:31:46.997Z,79.05
2022-11-16T09:34:14.661Z,78.41
2022-11-16T09:36:42.166Z,78.14
2022-11-16T09:39:30.770Z,78.33
2022-11-16T09:42:40.989Z,77.80
2022-11-16T09:45:27.399Z,78.57
2022-11-16T09:47:59.485Z,79.39
2022-11-16T09:50:39.312Z,81.23
2022-11-16T09:53:18.760Z,78.63
2022-11-16T09:55:52.016Z,78.84
2022-11-16T09:58:42.876Z,78.41
2022-11-16T10:01:32.159Z,78.13
2022-11-16T10:04:11.259Z,78.60
2022-11-16T10:06:48.598Z,79.47
2022-11-16T10:09:16.705Z,79.89
2022-11-16T10:11:55.166Z,78.24
2022-11-16T10:15:04.622Z,79.32
2022-11-16T10:18:06.639Z,80.90
2022-11-16T10:21:09.783Z,78.94
2022-11-16T10:23:58.450Z,77.11
2022-11-16T10:26:50.068Z,77.84
2022-11-16T10:29:28.268Z,78.74
2022-11-16T10:32:26.037Z,78.93
2022-11-16T10:35:12.034Z,78.32
2022-11-16T10:37:46.580Z,79.04
2022-11-16T10:40:25.071Z,79.31
2022-11-16T10:43:01.381Z,79.87
2022-11-16T10:45:35.197Z,79.36
2022-11-16T10:48:27.812Z,79.78
2022-11-16T10:50:55.935Z,80.32
2022-11-16T10:53:46.181Z,80.27
2022-11-16T10:56:20.884Z,80.60
2022-11-16T10:59:02.982Z,80.71
2022-11-16T11:01:39.949Z,81.57
2022-11-16T11:04:19.754Z,79.41
2022-11-16T11:06:51.532Z,80.21
2022-11-16T11:09:21.910Z,82.32
2022-11-16T11:12:37.898Z,80.16
2022-11-16T11:15:11.106Z,79.67
2022-11-16T11:17:43.792Z,80.78
2022-11-16T11:20:17.534Z,82.88
2022-11-16T11:22:56.584Z,81.57
2022-11-16T11:25:32.741Z,81.82
2022-11-16T11:28:08.284Z,80.65
2022-11-16T11:30:36.334Z,82.53
2022-11-16T11:33:11.630Z,82.22
2022-11-16T11:35:42.198Z,83.02
2022-11-16T11:38:15.334Z,81.72
2022-11-16T11:40:57.710Z,81.67
2022-11-16T11:43:25.961Z,82.42
2022-11-16T11:46:11.621Z,82.26
2022-11-16T11:48:48.028Z,82.07
2022-11-16T11:51:40.554Z,81.63
2022-11-16T11:54:27.476Z,80.94
2022-11-16T11:56:55.151Z,82.06
2022-11-16T11:59:26.414Z,82.53
2022-11-16T12:02:07.566Z,82.15
2022-11-16T12:04:54.370Z,82.91
2022-11-16T12:07:59.988Z,81.87
2022-11-16T12:10:36.231Z,81.46
2022-11-16T12:13:45.297Z,80.55
2022-11-16T12:16:27.941Z,80.72
2022-11-16T12:19:04.399Z,81.65
2022-11-16T12:21:58.971Z,81.46
2022-11-16T12:25:17.270Z,80.76
2022-11-16T12:28:09.055Z,82.63
2022-11-16T12:31:10.200Z,81.43
2022-11-16T12:33:46.801Z,81.80
2022-11-16T12:36:54.166Z,80.99
2022-11-16T12:39:27.426Z,80.87
2022-11-16T12:42:10.969Z,80.89
2022-11-16T12:45:16.303Z,80.64
2022-11-16T12:48:04.162Z,81.30
2022-11-16T12:50:51.605Z,81.74
2022-11-16T12:53:28.006Z,81.90
2022-11-16T12:56:33.110Z,82.10
2022-11-16T12:59:31.660Z,81.63
2022-11-16T13:02:17.838Z,80.77
2022-11-16T13:04:51.486Z,81.76
2022-11-16T13:07:25.527Z,81.39
2022-11-16T13:10:01.063Z,81.48
2022-11-16T13:12:31.054Z,81.86
2022-11-16T13:15:01.934Z,81.96
2022-11-16T13:17:37.994Z,81.97
2022-11-16T13:20:46.287Z,82.08
2022-11-16T13:23:32.440Z,81.90
2022-11-16T13:26:31.617Z,81.53
2022-11-16T13:29:22.125Z,82.23
2022-11-16T13:31:58.917Z,81.64
2022-11-16T13:34:31.909Z,81.75
2022-11-16T13:37:00.691Z,81.85
2022-11-16T13:39:59.012Z,81.79
2022-11-16T13:42:27.182Z,80.92
2022-11-16T13:45:06.774Z,81.49
2022-11-16T13:47:35.556Z,80.79
2022-11-16T13:50:06.903Z,81.17
2022-11-16T13:55:43.839Z,81.33
2022-11-16T13:58:19.887Z,80.43
2022-11-16T14:00:59.070Z,80.67
2022-11-16T14:03:30.062Z,80.83
2022-11-16T14:05:57.579Z,80.08
2022-11-16T14:08:35.051Z,80.65
2022-11-16T14:11:03.200Z,80.99
2022-11-16T14:13:42.333Z,80.95
2022-11-16T14:16:21.877Z,80.82
2022-11-16T14:18:56.022Z,80.87
2022-11-16T14:22:10.397Z,81.25
2022-11-16T14:24:47.045Z,81.95
2022-11-16T14:27:39.451Z,81.81
2022-11-16T14:30:26.682Z,81.82
2022-11-16T14:32:56.329Z,82.03
2022-11-16T14:35:39.779Z,81.30
2022-11-16T14:38:28.938Z,81.58
2022-11-16T14:41:00.563Z,80.71
2022-11-16T14:43:49.749Z,80.97
2022-11-16T14:46:19.841Z,81.49
2022-11-16T14:48:48.108Z,82.25
2022-11-16T14:51:24.954Z,82.35
2022-11-16T14:53:57.093Z,82.25
2022-11-16T14:56:25.054Z,81.39
2022-11-16T14:59:01.438Z,82.10
2022-11-16T15:01:33.217Z,81.82
2022-11-16T15:04:04.083Z,81.46
2022-11-16T15:06:52.273Z,80.90
2022-11-16T15:09:28.322Z,81.81
2022-11-16T15:12:16.242Z,81.72
2022-11-16T15:15:06.873Z,82.40
2022-11-16T15:17:35.110Z,82.44
2022-11-16T15:20:13.982Z,81.58
2022-11-16T15:22:44.756Z,81.75
2022-11-16T15:25:27.282Z,82.41
2022-11-16T15:27:56.736Z,81.79
2022-11-16T15:30:30.995Z,81.88
2022-11-16T15:32:58.600Z,82.20
2022-11-16T15:35:31.905Z,81.65
2022-11-16T15:38:23.202Z,82.29
2022-11-16T15:41:10.460Z,82.37
2022-11-16T15:44:01.365Z,81.48
2022-11-16T15:46:32.957Z,82.31
2022-11-16T15:49:01.314Z,81.82
2022-11-16T15:51:31.736Z,81.69
2022-11-16T15:54:23.605Z,81.67
2022-11-16T15:56:54.978Z,82.25
2022-11-16T15:59:27.537Z,82.33
2022-11-16T16:01:55.708Z,82.11
2022-11-16T16:04:25.148Z,85.08
2022-11-16T16:06:52.691Z,83.11
2022-11-16T16:09:24.362Z,82.93
2022-11-16T16:11:54.368Z,82.74
2022-11-16T16:14:28.026Z,83.29
2022-11-16T16:17:00.512Z,83.74
2022-11-16T16:19:31.317Z,83.24
2022-11-16T16:22:01.039Z,82.89
2022-11-16T16:24:45.730Z,82.51
2022-11-16T16:27:16.478Z,82.88
2022-11-16T16:29:53.219Z,82.36
2022-11-16T16:32:30.975Z,82.27
2022-11-16T16:35:01.248Z,81.62
2022-11-16T16:37:31.332Z,82.80
2022-11-16T16:39:59.427Z,82.22
2022-11-16T16:42:27.181Z,82.81
2022-11-16T16:44:54.695Z,82.20
2022-11-16T16:47:22.634Z,82.04
2022-11-16T16:49:50.186Z,82.10
2022-11-16T16:52:17.872Z,81.68
2022-11-16T16:54:45.567Z,82.25
2022-11-16T16:57:14.951Z,81.53
2022-11-16T16:59:45.381Z,81.89
2022-11-16T17:02:15.566Z,82.26
2022-11-16T17:04:44.078Z,81.14
2022-11-16T17:07:12.000Z,81.88
2022-11-16T17:09:39.871Z,81.11
2022-11-16T17:12:07.449Z,81.96
2022-11-16T17:14:34.984Z,81.44
2022-11-16T17:17:03.166Z,81.47
2022-11-16T17:19:31.010Z,81.42
2022-11-16T17:21:59.380Z,81.69
2022-11-16T17:24:26.920Z,81.88
2022-11-16T17:26:57.610Z,81.72
2022-11-16T17:29:25.302Z,82.12
2022-11-16T17:31:53.085Z,81.92
2022-11-16T17:34:20.801Z,82.33
2022-11-16T17:36:48.485Z,82.44
2022-11-16T17:39:16.606Z,82.26
2022-11-16T17:41:44.306Z,82.18
2022-11-16T17:44:14.860Z,82.78
2022-11-16T17:46:44.790Z,83.04
2022-11-16T17:49:12.604Z,81.99
2022-11-16T17:51:40.351Z,82.09
2022-11-16T17:54:07.930Z,82.46
2022-11-16T17:56:35.808Z,81.36
2022-11-16T17:59:03.724Z,81.71
2022-11-16T18:01:33.203Z,81.72
2022-11-16T18:04:02.595Z,81.32
2022-11-16T18:06:32.009Z,81.92
2022-11-16T18:08:59.846Z,82.24
2022-11-16T18:11:28.209Z,81.90
2022-11-16T18:13:58.177Z,81.35
2022-11-16T18:16:28.120Z,81.29
2022-11-16T18:19:06.143Z,81.01
2022-11-16T18:21:41.505Z,81.73
2022-11-16T18:24:09.793Z,81.72
2022-11-16T18:26:38.650Z,81.07
2022-11-16T18:29:09.079Z,80.91
2022-11-16T18:31:36.754Z,80.43
2022-11-16T18:34:04.585Z,80.42
2022-11-16T18:36:32.106Z,81.10
2022-11-16T18:39:00.779Z,81.19
2022-11-16T18:41:30.166Z,80.42
2022-11-16T18:44:00.193Z,81.77
2022-11-16T18:46:32.828Z,81.07
2022-11-16T18:49:00.747Z,81.45
2022-11-16T18:51:30.494Z,81.36
2022-11-16T18:53:58.304Z,80.75
2022-11-16T18:56:26.914Z,80.78
2022-11-16T18:58:54.802Z,80.83
2022-11-16T19:01:24.601Z,81.83
2022-11-16T19:03:53.901Z,81.68
2022-11-16T19:06:23.130Z,81.81
2022-11-16T19:08:59.881Z,82.61
2022-11-16T19:11:28.561Z,82.25
2022-11-16T19:14:04.337Z,81.86
2022-11-16T19:16:32.157Z,81.91
2022-11-16T19:19:01.518Z,81.96
2022-11-16T19:21:29.913Z,81.47
2022-11-16T19:23:57.764Z,81.90
2022-11-16T19:26:27.262Z,82.57
2022-11-16T19:28:55.703Z,81.11
2022-11-16T19:31:30.353Z,82.37
2022-11-16T19:34:03.247Z,81.47
2022-11-16T19:36:32.746Z,81.42
2022-11-16T19:39:01.551Z,81.35
2022-11-16T19:41:29.565Z,81.50
2022-11-16T19:44:00.212Z,81.03
2022-11-16T19:46:30.480Z,80.88
2022-11-16T19:48:59.268Z,81.09
2022-11-16T19:51:29.193Z,80.92
2022-11-16T19:53:58.975Z,80.71
2022-11-16T19:56:27.015Z,80.77
2022-11-16T19:58:55.022Z,80.88
2022-11-16T20:01:28.990Z,81.34
2022-11-16T20:04:02.357Z,81.44
2022-11-16T20:06:32.333Z,81.83
2022-11-16T20:09:04.042Z,81.46
2022-11-16T20:11:36.317Z,80.97
2022-11-16T20:14:06.243Z,81.27
2022-11-16T20:16:39.037Z,81.23
2022-11-16T20:19:09.036Z,80.25
2022-11-16T20:21:39.777Z,81.43
2022-11-16T20:24:11.054Z,81.02
2022-11-16T20:26:45.255Z,80.42
2022-11-16T20:29:14.195Z,80.90
2022-11-16T20:31:45.035Z,80.72
2022-11-16T20:34:15.639Z,80.88
2022-11-16T20:36:46.099Z,81.94
2022-11-16T20:39:29.475Z,82.78
2022-11-16T20:41:57.143Z,81.74
2022-11-16T20:44:24.905Z,80.80
2022-11-16T20:46:52.913Z,80.57
2022-11-16T20:49:21.096Z,81.34
2022-11-16T20:51:50.353Z,81.04
2022-11-16T20:54:18.118Z,81.09
2022-11-16T20:56:45.876Z,81.30
2022-11-16T20:59:13.635Z,81.44
2022-11-16T21:01:44.833Z,82.47
2022-11-16T21:04:13.510Z,81.88
2022-11-16T21:06:41.234Z,81.64
2022-11-16T21:09:11.797Z,81.50
2022-11-16T21:11:57.579Z,81.22
2022-11-16T21:14:25.075Z,81.99
2022-11-16T21:16:52.569Z,81.48
2022-11-16T21:19:20.127Z,83.25
2022-11-16T21:21:47.667Z,82.97
2022-11-16T21:24:15.258Z,82.71
2022-11-16T21:26:42.969Z,81.95
2022-11-16T21:29:10.620Z,81.72
2022-11-16T21:31:38.204Z,81.34
2022-11-16T21:34:07.293Z,81.12
2022-11-16T21:36:36.137Z,80.15
2022-11-16T21:39:05.112Z,79.88
2022-11-16T21:41:32.581Z,80.04
2022-11-16T21:44:00.015Z,80.07
2022-11-16T21:46:28.021Z,79.78
2022-11-16T21:48:56.633Z,80.10
2022-11-16T21:51:29.357Z,80.04
2022-11-16T21:53:56.830Z,80.28
2022-11-16T21:56:25.877Z,80.45
2022-11-16T21:58:54.512Z,80.06
2022-11-16T22:01:23.506Z,80.31
2022-11-16T22:04:11.429Z,79.93
2022-11-16T22:06:57.521Z,79.71
2022-11-16T22:09:25.265Z,79.42
2022-11-16T22:11:52.756Z,80.80
2022-11-16T22:14:20.259Z,81.66
2022-11-16T22:16:47.800Z,80.64
2022-11-16T22:19:15.340Z,81.06
2022-11-16T22:21:42.767Z,80.35
2022-11-16T22:24:10.230Z,80.46
2022-11-16T22:26:38.184Z,80.75
2022-11-16T22:29:05.734Z,80.86
2022-11-16T22:31:33.311Z,80.91
2022-11-16T22:34:00.793Z,80.89
2022-11-16T22:36:28.258Z,81.73
2022-11-16T22:38:57.115Z,81.15
2022-11-16T22:41:24.571Z,81.13
2022-11-16T22:43:52.198Z,81.56
2022-11-16T22:46:19.753Z,81.82
2022-11-16T22:48:48.006Z,81.36
2022-11-16T22:51:23.032Z,81.30
2022-11-16T22:53:58.535Z,80.88
2022-11-16T22:56:27.099Z,80.38
2022-11-16T22:58:56.107Z,80.56
2022-11-16T23:01:24.240Z,79.74
2022-11-16T23:03:52.022Z,80.20
2022-11-16T23:06:19.535Z,80.16
2022-11-16T23:08:47.359Z,79.74
2022-11-16T23:11:38.544Z,80.40
2022-11-16T23:14:28.002Z,80.85
2022-11-16T23:16:55.593Z,80.43
2022-11-16T23:19:42.357Z,80.67
2022-11-16T23:22:34.350Z,80.48
2022-11-16T23:25:21.261Z,80.43
2022-11-16T23:28:14.906Z,80.14
2022-11-16T23:30:42.561Z,80.07
2022-11-16T23:33:10.555Z,81.16
2022-11-16T23:35:38.087Z,79.83
2022-11-16T23:38:07.138Z,79.51
2022-11-16T23:40:36.946Z,79.87
2022-11-16T23:43:24.259Z,80.15
2022-11-16T23:45:51.978Z,80.89
2022-11-16T23:48:19.941Z,80.54
2022-11-16T23:50:47.557Z,80.18
2022-11-16T23:53:15.102Z,80.32
2022-11-16T23:55:42.600Z,80.63
2022-11-16T23:58:13.533Z,80.43
